Saint Leonard, Maryland
Current Conditions -  °F | °C
As of 1:39 PM on Sunday 21 Dec 2014 (Local Time) from K2W6 Reporting Station
Clear Clear  
Wind Chill: 41°   Ceiling: Unl
Heat Index: 41°   Visibility: 10mi
Dew Point: 23°   Wind: 3mph
Humidity: 49%   Direction: 340°NNW
Pressure: 30.32"   Gusts: NA
Location:  38.47°N, 76.51°W
Report Text: K2W6 211839Z AUTO 34003KT 10SM CLR 05/M05 A3032 RMK AO1
Loading
Personal Weather Stations






























Interactive Weather Map New forecast layout! Learn more

10-Day Weather Forecast

Advertisements
Track Severe Weather on mobile